METAR Reports

 

KMRH - Beaufort, North Carolina, USA
Distance from station: E 8mi, 12km
Updated: Wed, 14-Nov-2018 6:58pm EST
Overcast
Overcast
 Wind from NNE
Wind: NNE 12 mph , 19 km/h
Temperature: 50°F , 10°C
Wind Chill: 45°F , 7°C
Dew Point: 41°F , 5°C
Humidity: 71%
Barometer: 30.38 inHg , 1028.8 hPa
Clouds: Overcast
Visibility: 10 miles , 16 km
Cloud details: Overcast 10000 ft
2018/11/14 23:58 KMRH 142358Z AUTO 03010KT 10SM OVC100 10/05 A3038 RMK AO2 SLP286 T01000050 10139 20100 50004
KEWN - New Bern, North Carolina, USA
Distance from station: NW 33mi, 40km
Updated: Wed, 14-Nov-2018 6:54pm EST
Overcast
Overcast
 Wind from NE
Wind: NE 16 mph , 26 km/h, Gust: 22 mph , 35 km/h
Temperature: 46°F , 8°C
Wind Chill: 39°F , 4°C
Dew Point: 36°F , 2°C
Humidity: 66%
Barometer: 30.40 inHg , 1029.5 hPa
Clouds: Overcast
Visibility: 10 miles , 16 km
Cloud details: Overcast 11000 ft
2018/11/14 23:54 KEWN 142354Z 05014G19KT 10SM OVC110 08/02 A3040 RMK AO2 SLP295 T00830022 10106 20083 51005
 
KPGV - Greenville, North Carolina, USA
Updated: Wed, 14-Nov-2018 7:50pm EST
Clear
Clear
 Wind from NE
Wind: NE 8 mph , 13 km/h
Temperature: 43°F , 6°C
Wind Chill: 38°F , 3°C
Dew Point: 32°F , 0°C
Humidity: 66%
Barometer: 30.42 inHg , 1030.1 hPa
Clouds: Clear
Visibility: 10 miles , 16 km
2018/11/15 00:50 KPGV 150050Z AUTO 05007KT 10SM CLR 06/00 A3042 RMK AO2
KOAJ - Richlands, North Carolina, USA
Updated: Wed, 14-Nov-2018 6:56pm EST
Mostly Cloudy
Mostly Cloudy
 Wind from NE
Wind: NE 13 mph , 20 km/h
Temperature: 45°F , 7°C
Wind Chill: 39°F , 4°C
Dew Point: 34°F , 1°C
Humidity: 66%
Barometer: 30.37 inHg , 1028.4 hPa
Clouds: Mostly Cloudy
Visibility: 10 miles , 16 km
Cloud details: Mostly Cloudy 10000 ft
2018/11/14 23:56 KOAJ 142356Z 04011KT 10SM BKN100 07/01 A3037 RMK AO2 SLP291 T00720006 10106 20072 58002
 
KISO - Kinston, North Carolina, USA
Distance from station: NW 73mi, 87km
Updated: Wed, 14-Nov-2018 6:56pm EST
Clear
Clear
 Wind from NNE
Wind: NNE 12 mph , 19 km/h
Temperature: 45°F , 7°C
Wind Chill: 39°F , 4°C
Dew Point: 30°F , -1°C
Humidity: 57%
Barometer: 30.41 inHg , 1029.8 hPa
Clouds: Clear
Visibility: 10 miles , 16 km
2018/11/14 23:56 KISO 142356Z 03010KT 10SM CLR 07/M01 A3041
KHSE - Buxton, North Carolina, USA
Distance from station: NE 89mi, 102km
Updated: Wed, 14-Nov-2018 7:51pm EST
Partly Cloudy
Partly Cloudy
 Wind from ENE
Wind: ENE 13 mph , 20 km/h, Gust: 24 mph , 39 km/h
Temperature: 54°F , 12°C
Dew Point: 43°F , 6°C
Humidity: 67%
Barometer: 30.39 inHg , 1029.1 hPa
Clouds: Partly Cloudy
Visibility: 10 miles , 16 km
Cloud details: Few Clouds 2900 ft
Partly Cloudy 11000 ft
2018/11/15 00:51 KHSE 150051Z AUTO 06011G21KT 10SM FEW029 SCT110 12/06 A3039 RMK AO2 SLP289 T01170061
 
KNCA - Jacksonville, North Carolina, USA
Distance from station: SW 48mi, 60km
Updated: Wed, 14-Nov-2018 6:56pm EST
Overcast
Overcast
 Wind from NE
Wind: NE 14 mph , 22 km/h
Temperature: 48°F , 9°C
Wind Chill: 42°F , 6°C
Dew Point: 39°F , 4°C
Humidity: 71%
Barometer: 30.36 inHg , 1028.1 hPa
Clouds: Overcast
Visibility: 10 miles , 16 km
Cloud details: Overcast 10000 ft
2018/11/14 23:56 KNCA 142356Z 04012KT 10SM OVC100 09/04 A3036 RMK AO2 SLP284 T00890039 10117 20089 57001 $
KNKT - Cherry Point, North Carolina, USA
Distance from station: NW 9mi, 12km
Updated: Wed, 14-Nov-2018 7:54pm EST
Clear
Clear
 Wind from NE
Wind: NE 16 mph , 26 km/h
Temperature: 48°F , 9°C
Wind Chill: 42°F , 6°C
Dew Point: 41°F , 5°C
Humidity: 76%
Barometer: 30.38 inHg , 1028.8 hPa
Clouds: Clear
Visibility: 10 miles , 16 km
2018/11/15 00:54 KNKT 150054Z 04014KT 10SM CLR 09/05 A3038 RMK AO2 SLP284 T00940050
 
KOCW - Washington, North Carolina, USA
Distance from station: N 73mi, 87km
Updated: Wed, 14-Nov-2018 7:40pm EST
Clear
Clear
 Wind from NE
Wind: NE 9 mph , 15 km/h
Temperature: 43°F , 6°C
Wind Chill: 38°F , 3°C
Dew Point: 32°F , 0°C
Humidity: 66%
Barometer: 30.42 inHg , 1030.1 hPa
Clouds: Clear
Visibility: 10 miles , 16 km
2018/11/15 00:40 KOCW 150040Z AUTO 04008KT 10SM CLR 06/00 A3042 RMK AO2 T00630004
KDPL - Kenansville, North Carolina, USA
Distance from station: W 86mi, 98km
Updated: Wed, 14-Nov-2018 7:40pm EST
Overcast
Overcast
 Wind from NE
Wind: NE 6 mph , 9 km/h
Temperature: 45°F , 7°C
Wind Chill: 42°F , 6°C
Dew Point: 30°F , -1°C
Humidity: 57%
Barometer: 30.39 inHg , 1029.1 hPa
Clouds: Overcast
Visibility: 10 miles , 16 km
Cloud details: Overcast 12000 ft
2018/11/15 00:40 KDPL 150040Z AUTO 04005KT 10SM OVC120 07/M01 A3039 RMK AO2
 
KMQI - Manteo, North Carolina, USA
Updated: Wed, 14-Nov-2018 7:40pm EST
Mostly Cloudy
Mostly Cloudy
 Wind from ENE
Wind: ENE 16 mph , 26 km/h, Gust: 26 mph , 43 km/h
Temperature: 48°F , 9°C
Wind Chill: 42°F , 6°C
Dew Point: 37°F , 3°C
Humidity: 66%
Barometer: 30.43 inHg , 1030.5 hPa
Clouds: Mostly Cloudy
Visibility: 10 miles , 16 km
Cloud details: Mostly Cloudy 3000 ft
2018/11/15 00:40 KMQI 150040Z AUTO 06014G23KT 10SM BKN030 09/03 A3043 RMK AO2 T00940032
KFFA - Kill Devil Hills, North Carolina, USA
Updated: Wed, 14-Nov-2018 7:40pm EST
Overcast
Overcast
 Wind from NE
Wind: NE 7 mph , 11 km/h, Gust: 18 mph , 30 km/h
Temperature: 48°F , 9°C
Wind Chill: 45°F , 7°C
Dew Point: 37°F , 3°C
Humidity: 66%
Barometer: 30.41 inHg , 1029.8 hPa
Clouds: Overcast
Visibility: 10 miles , 16 km
Cloud details: Overcast 2900 ft
2018/11/15 00:40 KFFA 150040Z AUTO 05006G16KT 010V120 10SM OVC029 09/03 A3041 RMK AO2 T00900029
 
KILM - Wilmington, North Carolina, USA
Updated: Wed, 14-Nov-2018 7:53pm EST
Overcast
Overcast
 Wind from NE
Wind: NE 13 mph , 20 km/h
Temperature: 48°F , 9°C
Wind Chill: 43°F , 6°C
Dew Point: 36°F , 2°C
Humidity: 62%
Barometer: 30.35 inHg , 1027.8 hPa
Clouds: Overcast
Visibility: 10 miles , 16 km
Cloud details: Overcast 9500 ft
2018/11/15 00:53 KILM 150053Z 04011KT 10SM OVC095 09/02 A3035 RMK AO2 SLP276 T00890022
KRDU - Raleigh, North Carolina, USA
Updated: Wed, 14-Nov-2018 7:51pm EST
Overcast
Overcast
 Wind from ENE
Wind: ENE 8 mph , 13 km/h
Temperature: 43°F , 6°C
Wind Chill: 38°F , 3°C
Dew Point: 36°F , 2°C
Humidity: 76%
Barometer: 30.44 inHg , 1030.8 hPa
Clouds: Overcast
Visibility: 10 miles , 16 km
Cloud details: Few Clouds 5000 ft
Mostly Cloudy 10000 ft
Overcast 13000 ft
2018/11/15 00:51 KRDU 150051Z 06007KT 10SM FEW050 BKN100 OVC130 06/02 A3044 RMK AO2 SLP310 T00560017